This is the latest recevied weather packets stored in our database for station/object DO7CRZ-12. If no packets are shown the sender has not sent any weather packets the latest 1 day(s).
| Time | Temp. | Humidity | Pressure | Rain* | Wind** | Luminosity | Snow |
|---|---|---|---|---|---|---|---|
| 1778054837 | 17.78° C | 71% | 1004.5 hPa | 0 mm | - | 196 W/m² | - |
| 1778054250 | 16.67° C | 73% | 1004.4 hPa | 0 mm | - | 62 W/m² | - |
| 1778053647 | 16.67° C | 75% | 1004.4 hPa | 0 mm | - | 69 W/m² | - |
| 1778053044 | 16.11° C | 77% | 1004.6 hPa | 0 mm | - | 72 W/m² | - |
| 1778051235 | 15.56° C | 83% | 1004.6 hPa | 0 mm | - | 47 W/m² | - |
| 1778050647 | 15° C | 83% | 1004.8 hPa | 0 mm | - | 38 W/m² | - |
| 1778048839 | 14.44° C | 88% | 1004.6 hPa | 0 mm | - | 42 W/m² | - |
| 1778048236 | 14.44° C | 90% | 1004.7 hPa | 0 mm | - | 32 W/m² | - |
| 1778047648 | 13.89° C | 91% | 1004.6 hPa | 0 mm | - | 40 W/m² | - |
| 1778047045 | 13.33° C | 92% | 1004.6 hPa | 0 mm | - | 24 W/m² | - |
| 1778045839 | 13.33° C | 94% | 1004.5 hPa | 0 mm | - | 40 W/m² | - |
| 1778045236 | 13.33° C | 94% | 1004.8 hPa | 0 mm | - | 33 W/m² | - |
| 1778044648 | 12.78° C | 95% | 1004.6 hPa | 0 mm | - | 28 W/m² | - |
| 1778044046 | 12.78° C | 95% | 1004.4 hPa | 0 mm | - | 17 W/m² | - |
| 1778043442 | 12.78° C | 96% | 1004.5 hPa | 0 mm | - | 13 W/m² | - |
| 1778042840 | 12.78° C | 96% | 1004.3 hPa | 0 mm | - | 17 W/m² | - |
| 1778042236 | 12.78° C | 97% | 1004.6 hPa | 0 mm | - | 12 W/m² | - |
| 1778041648 | 12.22° C | 97% | 1004.4 hPa | 0 mm | - | 11 W/m² | - |
| 1778041046 | 12.22° C | 97% | 1004.4 hPa | 0 mm | - | 9 W/m² | - |
| 1778040443 | 12.22° C | 97% | 1004.4 hPa | 0 mm | - | 6 W/m² | - |
| 1778039840 | 12.78° C | 97% | 1004.3 hPa | 0 mm | - | 5 W/m² | - |
| 1778039237 | 12.78° C | 97% | 1004.4 hPa | 0 mm | - | 3 W/m² | - |
| 1778038046 | 12.78° C | 97% | 1004.5 hPa | 0 mm | - | 0 W/m² | - |
| 1778037444 | 12.78° C | 97% | 1004.5 hPa | 0 mm | - | 0 W/m² | - |
| 1778035635 | 12.78° C | 98% | 1004.4 hPa | 0 mm | - | 0 W/m² | - |
* Rain latest hour (hover to see other rain measurements)
** Current wind speed in m/s (hover to see current wind gust speed)